createdAt,value
2018-03-29T00:00:32.065Z,0.00
2018-03-29T00:01:32.137Z,0.00
2018-03-29T00:02:32.193Z,0.00
2018-03-29T00:03:32.309Z,0.00
2018-03-29T00:04:32.317Z,0.00
2018-03-29T00:05:32.377Z,0.00
2018-03-29T00:06:32.436Z,0.00
2018-03-29T00:07:32.501Z,0.00
2018-03-29T00:08:32.573Z,0.00
2018-03-29T00:09:32.769Z,0.00
2018-03-29T00:10:32.661Z,0.00
2018-03-29T00:11:32.753Z,0.00
2018-03-29T00:12:32.781Z,0.00
2018-03-29T00:13:32.885Z,0.00
2018-03-29T00:14:32.957Z,0.00
2018-03-29T00:15:32.977Z,0.00
2018-03-29T00:16:33.045Z,0.00
2018-03-29T00:17:33.098Z,0.00
2018-03-29T00:18:33.689Z,0.00
2018-03-29T00:19:33.213Z,0.00
2018-03-29T00:20:33.321Z,0.00
2018-03-29T00:21:33.338Z,0.00
2018-03-29T00:22:33.594Z,0.00
2018-03-29T00:23:33.473Z,0.00
2018-03-29T00:24:33.665Z,0.00
2018-03-29T00:25:33.570Z,0.00
2018-03-29T00:26:33.626Z,0.00
2018-03-29T00:27:33.707Z,0.00
2018-03-29T00:28:33.751Z,0.00
2018-03-29T00:29:33.946Z,0.00
2018-03-29T00:30:33.886Z,0.00
2018-03-29T00:31:33.950Z,0.00
2018-03-29T00:32:33.986Z,0.00
2018-03-29T00:33:34.054Z,0.00
2018-03-29T00:34:34.266Z,0.00
2018-03-29T00:35:34.178Z,0.00
2018-03-29T00:36:34.233Z,0.00
2018-03-29T00:37:34.302Z,0.00
2018-03-29T00:38:34.358Z,0.00
2018-03-29T00:39:34.438Z,0.00
2018-03-29T00:40:34.492Z,0.00
2018-03-29T00:41:34.526Z,0.00
2018-03-29T00:42:34.582Z,0.00
2018-03-29T00:43:34.646Z,0.00
2018-03-29T00:44:34.723Z,0.00
2018-03-29T00:45:34.781Z,0.00
2018-03-29T00:46:34.831Z,0.00
2018-03-29T00:47:34.882Z,0.00
2018-03-29T00:48:34.947Z,0.00
2018-03-29T00:49:35.027Z,0.00
2018-03-29T00:50:35.102Z,0.00
2018-03-29T00:51:35.307Z,0.00
2018-03-29T00:52:35.199Z,0.00
2018-03-29T00:53:35.247Z,0.00
2018-03-29T00:54:35.307Z,0.00
2018-03-29T00:55:35.471Z,0.00
2018-03-29T00:56:35.439Z,0.00
2018-03-29T00:57:35.485Z,0.00
2018-03-29T00:58:35.551Z,0.00
2018-03-29T00:59:35.603Z,0.00
2018-03-29T01:00:35.680Z,0.00
2018-03-29T01:01:35.748Z,0.00
2018-03-29T01:02:35.951Z,0.00
2018-03-29T01:03:35.845Z,0.00
2018-03-29T01:04:35.901Z,0.00
2018-03-29T01:05:35.991Z,0.00
2018-03-29T01:06:36.154Z,0.00
2018-03-29T01:07:36.084Z,0.00
2018-03-29T01:08:36.151Z,0.00
2018-03-29T01:09:36.280Z,0.00
2018-03-29T01:10:36.300Z,0.00
2018-03-29T01:11:36.331Z,0.00
2018-03-29T01:12:36.391Z,0.00
2018-03-29T01:13:36.449Z,0.00
2018-03-29T01:14:36.511Z,0.00
2018-03-29T01:15:36.572Z,0.00
2018-03-29T01:16:36.773Z,0.00
2018-03-29T01:17:36.698Z,0.00
2018-03-29T01:18:36.956Z,0.00
2018-03-29T01:19:36.803Z,0.00
2018-03-29T01:20:36.876Z,0.00
2018-03-29T01:21:36.931Z,0.00
2018-03-29T01:22:36.988Z,0.00
2018-03-29T01:23:37.064Z,0.00
2018-03-29T01:24:37.285Z,0.00
2018-03-29T01:25:37.188Z,0.00
2018-03-29T01:26:37.234Z,0.00
2018-03-29T01:27:37.288Z,0.00
2018-03-29T01:28:37.404Z,0.00
2018-03-29T01:29:37.438Z,0.00
2018-03-29T01:30:37.469Z,0.00
2018-03-29T01:31:37.596Z,0.00
2018-03-29T01:32:37.596Z,0.00
2018-03-29T01:33:37.677Z,0.00
2018-03-29T01:34:37.713Z,0.00
2018-03-29T01:35:37.795Z,0.00
2018-03-29T01:36:37.833Z,0.00
2018-03-29T01:37:37.885Z,0.00
2018-03-29T01:38:38.121Z,0.00
2018-03-29T01:39:38.012Z,0.00
2018-03-29T01:40:38.074Z,0.00
2018-03-29T01:41:38.137Z,0.00
2018-03-29T01:42:38.213Z,0.00
2018-03-29T01:43:38.245Z,0.00
2018-03-29T01:44:38.309Z,0.00
2018-03-29T01:45:38.369Z,0.00
2018-03-29T01:46:38.429Z,0.00
2018-03-29T01:47:38.485Z,0.00
2018-03-29T01:48:38.545Z,0.00
2018-03-29T01:49:38.609Z,0.00
2018-03-29T01:50:38.709Z,0.00
2018-03-29T01:51:38.730Z,0.00
2018-03-29T01:52:38.781Z,0.00
2018-03-29T01:53:38.845Z,0.00
2018-03-29T01:54:38.905Z,0.00
2018-03-29T01:55:38.969Z,0.00
2018-03-29T01:56:39.066Z,0.00
2018-03-29T01:57:39.133Z,0.00
2018-03-29T01:58:39.170Z,0.00
2018-03-29T01:59:39.210Z,0.00
2018-03-29T02:00:39.303Z,0.00
2018-03-29T02:01:39.321Z,0.00
2018-03-29T02:02:39.386Z,0.00
2018-03-29T02:03:39.446Z,0.00
2018-03-29T02:04:39.504Z,0.00
2018-03-29T02:05:39.569Z,0.00
2018-03-29T02:06:39.630Z,0.00
2018-03-29T02:07:39.686Z,0.00
2018-03-29T02:08:39.746Z,0.00
2018-03-29T02:09:39.813Z,0.00
2018-03-29T02:10:40.762Z,0.00
2018-03-29T02:11:40.182Z,0.00
2018-03-29T02:12:40.058Z,0.00
2018-03-29T02:13:40.046Z,0.00
2018-03-29T02:14:40.142Z,0.00
2018-03-29T02:15:40.358Z,0.00
2018-03-29T02:16:40.226Z,0.00
2018-03-29T02:17:40.286Z,0.00
2018-03-29T02:18:40.366Z,0.00
2018-03-29T02:19:40.446Z,0.00
2018-03-29T02:20:40.499Z,0.00
2018-03-29T02:21:40.534Z,0.00
2018-03-29T02:22:40.620Z,0.00
2018-03-29T02:23:40.649Z,0.00
2018-03-29T02:24:40.703Z,0.00
2018-03-29T02:25:40.775Z,0.00
2018-03-29T02:26:40.834Z,0.00
2018-03-29T02:27:40.891Z,0.00
2018-03-29T02:28:40.943Z,0.00
2018-03-29T02:29:41.002Z,0.00
2018-03-29T02:30:41.071Z,0.00
2018-03-29T02:31:41.231Z,0.00
2018-03-29T02:32:41.192Z,0.00
2018-03-29T02:33:41.247Z,0.00
2018-03-29T02:34:41.306Z,0.00
2018-03-29T02:35:41.368Z,0.00
2018-03-29T02:36:41.433Z,0.00
2018-03-29T02:37:41.491Z,0.00
2018-03-29T02:38:41.543Z,0.00
2018-03-29T02:39:41.612Z,0.00
2018-03-29T02:40:41.663Z,0.00
2018-03-29T02:41:41.735Z,0.00
2018-03-29T02:42:41.791Z,0.00
2018-03-29T02:43:41.843Z,0.00
2018-03-29T02:44:41.907Z,0.00
2018-03-29T02:45:41.968Z,0.00
2018-03-29T02:46:42.106Z,0.00
2018-03-29T02:47:42.098Z,0.00
2018-03-29T02:48:42.144Z,0.00
2018-03-29T02:49:42.205Z,0.00
2018-03-29T02:50:42.268Z,0.00
2018-03-29T02:51:42.348Z,0.00
2018-03-29T02:52:42.393Z,0.00
2018-03-29T02:53:42.485Z,0.00
2018-03-29T02:54:42.503Z,0.00
2018-03-29T02:55:42.586Z,0.00
2018-03-29T02:56:42.632Z,0.00
2018-03-29T02:57:42.704Z,0.00
2018-03-29T02:58:42.748Z,0.00
2018-03-29T02:59:42.804Z,0.00
2018-03-29T03:00:42.892Z,0.00
2018-03-29T03:01:42.936Z,0.00
2018-03-29T03:02:42.987Z,0.00
2018-03-29T03:03:43.045Z,0.00
2018-03-29T03:04:43.103Z,0.00
2018-03-29T03:05:43.174Z,0.00
2018-03-29T03:06:43.352Z,0.00
2018-03-29T03:07:43.284Z,0.00
2018-03-29T03:08:43.352Z,0.00
2018-03-29T03:09:43.418Z,0.00
2018-03-29T03:10:43.472Z,0.00
2018-03-29T03:11:43.533Z,0.00
2018-03-29T03:12:43.588Z,0.00
2018-03-29T03:13:43.644Z,0.00
2018-03-29T03:14:43.704Z,0.00
2018-03-29T03:15:43.764Z,0.00
2018-03-29T03:16:43.884Z,0.00
2018-03-29T03:17:43.900Z,0.00
2018-03-29T03:18:43.944Z,0.00
2018-03-29T03:19:44.005Z,0.00
2018-03-29T03:20:44.068Z,0.00
2018-03-29T03:21:44.169Z,0.00
2018-03-29T03:22:44.184Z,0.00
2018-03-29T03:23:44.248Z,0.00
2018-03-29T03:24:44.305Z,0.00
2018-03-29T03:25:44.364Z,0.00
2018-03-29T03:26:44.428Z,0.00
2018-03-29T03:27:44.497Z,0.00
2018-03-29T03:28:44.549Z,0.00
2018-03-29T03:29:44.623Z,0.00
2018-03-29T03:30:44.674Z,0.00
2018-03-29T03:31:44.733Z,0.00
2018-03-29T03:32:44.793Z,0.00
2018-03-29T03:33:44.900Z,0.00
2018-03-29T03:34:44.921Z,0.00
2018-03-29T03:35:44.969Z,0.00
2018-03-29T03:36:45.031Z,0.00
2018-03-29T03:37:45.093Z,0.00
2018-03-29T03:38:45.173Z,0.00
2018-03-29T03:39:45.245Z,0.00
2018-03-29T03:40:45.283Z,0.00
2018-03-29T03:41:45.489Z,0.00
2018-03-29T03:42:45.385Z,0.00
2018-03-29T03:43:45.445Z,0.00
2018-03-29T03:44:45.510Z,0.00
2018-03-29T03:45:45.593Z,0.00
2018-03-29T03:46:45.638Z,0.00
2018-03-29T03:47:45.702Z,0.00
2018-03-29T03:48:45.750Z,0.00
2018-03-29T03:49:45.872Z,0.00
2018-03-29T03:50:45.874Z,0.00
2018-03-29T03:51:45.938Z,0.00
2018-03-29T03:52:46.045Z,0.00
2018-03-29T03:53:46.059Z,0.00
2018-03-29T03:54:46.109Z,0.00
2018-03-29T03:55:46.169Z,0.00
2018-03-29T03:56:46.258Z,0.00
2018-03-29T03:57:46.298Z,0.00
2018-03-29T03:58:46.346Z,0.00
2018-03-29T03:59:46.413Z,0.00
2018-03-29T04:00:46.470Z,0.00
2018-03-29T04:01:46.542Z,0.00
2018-03-29T04:02:46.594Z,0.00
2018-03-29T04:03:46.650Z,0.00
2018-03-29T04:04:46.726Z,0.00
2018-03-29T04:05:46.774Z,0.00
2018-03-29T04:06:46.838Z,0.00
2018-03-29T04:07:46.898Z,0.00
2018-03-29T04:08:46.954Z,0.00
2018-03-29T04:09:47.010Z,0.00
2018-03-29T04:10:47.074Z,0.00
2018-03-29T04:11:47.162Z,0.00
2018-03-29T04:12:47.191Z,0.00
2018-03-29T04:13:47.295Z,0.00
2018-03-29T04:14:47.311Z,0.00
2018-03-29T04:15:47.371Z,0.00
2018-03-29T04:16:47.439Z,0.00
2018-03-29T04:17:47.503Z,0.00
2018-03-29T04:18:47.583Z,0.00
2018-03-29T04:19:47.611Z,0.00
2018-03-29T04:20:47.675Z,0.00
2018-03-29T04:21:47.744Z,0.00
2018-03-29T04:22:47.798Z,0.00
2018-03-29T04:23:47.859Z,0.00
2018-03-29T04:24:47.911Z,0.00
2018-03-29T04:25:47.983Z,0.00
2018-03-29T04:26:48.042Z,0.00
2018-03-29T04:27:48.135Z,0.00
2018-03-29T04:28:48.155Z,0.00
2018-03-29T04:29:48.215Z,0.00
2018-03-29T04:30:48.275Z,0.00
2018-03-29T04:31:48.587Z,0.00
2018-03-29T04:32:48.443Z,0.00
2018-03-29T04:33:48.679Z,0.00
2018-03-29T04:34:48.519Z,0.00
2018-03-29T04:35:48.575Z,0.00
2018-03-29T04:36:48.643Z,0.00
2018-03-29T04:37:48.703Z,0.00
2018-03-29T04:38:48.757Z,0.00
2018-03-29T04:39:48.848Z,0.00
2018-03-29T04:40:48.900Z,0.00
2018-03-29T04:41:48.948Z,0.00
2018-03-29T04:42:49.003Z,0.00
2018-03-29T04:43:49.060Z,0.00
2018-03-29T04:44:49.156Z,0.00
2018-03-29T04:45:49.216Z,0.00
2018-03-29T04:46:49.252Z,0.00
2018-03-29T04:47:49.300Z,0.00
2018-03-29T04:48:49.359Z,0.00
2018-03-29T04:49:49.424Z,0.00
2018-03-29T04:50:49.480Z,0.00
2018-03-29T04:51:49.556Z,0.00
2018-03-29T04:52:49.608Z,4.00
2018-03-29T04:53:49.668Z,0.00
2018-03-29T04:54:49.726Z,4.00
2018-03-29T04:55:49.780Z,4.00
2018-03-29T04:56:49.852Z,4.00
2018-03-29T04:57:49.909Z,4.00
2018-03-29T04:58:49.984Z,4.00
2018-03-29T04:59:50.024Z,8.00
2018-03-29T05:00:51.910Z,8.00
2018-03-29T05:01:50.200Z,8.00
2018-03-29T05:02:50.220Z,8.00
2018-03-29T05:03:50.268Z,12.00
2018-03-29T05:04:50.337Z,12.00
2018-03-29T05:05:50.392Z,12.00
2018-03-29T05:06:50.473Z,16.00
2018-03-29T05:07:50.513Z,20.00
2018-03-29T05:08:50.565Z,20.00
2018-03-29T05:09:50.629Z,24.00
2018-03-29T05:10:50.684Z,24.00
2018-03-29T05:11:50.761Z,24.00
2018-03-29T05:12:50.873Z,28.00
2018-03-29T05:13:50.888Z,32.00
2018-03-29T05:14:50.928Z,40.00
2018-03-29T05:15:50.989Z,40.00
2018-03-29T05:16:51.065Z,48.00
2018-03-29T05:17:51.169Z,52.00
2018-03-29T05:18:51.186Z,52.00
2018-03-29T05:19:51.233Z,56.00
2018-03-29T05:20:51.293Z,60.00
2018-03-29T05:21:51.358Z,64.00
2018-03-29T05:22:51.421Z,68.00
2018-03-29T05:23:51.473Z,80.00
2018-03-29T05:24:51.529Z,88.00
2018-03-29T05:25:51.590Z,96.00
2018-03-29T05:26:51.662Z,108.00
2018-03-29T05:27:51.727Z,112.00
2018-03-29T05:28:51.769Z,116.00
2018-03-29T05:29:51.834Z,120.00
2018-03-29T05:30:51.894Z,120.00
2018-03-29T05:31:51.979Z,120.00
2018-03-29T05:32:52.016Z,124.00
2018-03-29T05:33:52.078Z,144.00
2018-03-29T05:34:52.133Z,168.00
2018-03-29T05:35:52.202Z,196.00
2018-03-29T05:36:52.737Z,228.00
2018-03-29T05:37:52.318Z,256.00
2018-03-29T05:38:52.382Z,284.00
2018-03-29T05:39:52.434Z,308.00
2018-03-29T05:40:52.522Z,348.00
2018-03-29T05:41:52.558Z,388.00
2018-03-29T05:42:52.846Z,424.00
2018-03-29T05:43:52.682Z,432.00
2018-03-29T05:44:52.738Z,448.00
2018-03-29T05:45:52.798Z,460.00
2018-03-29T05:46:52.860Z,460.00
2018-03-29T05:47:52.932Z,448.00
2018-03-29T05:48:52.990Z,400.00
2018-03-29T05:49:53.094Z,452.00
2018-03-29T05:50:53.110Z,480.00
2018-03-29T05:51:53.158Z,448.00
2018-03-29T05:52:53.350Z,452.00
2018-03-29T05:53:53.286Z,488.00
2018-03-29T05:54:53.342Z,532.00
2018-03-29T05:55:53.415Z,564.00
2018-03-29T05:56:53.579Z,552.00
2018-03-29T05:57:55.343Z,444.00
2018-03-29T05:58:55.343Z,392.00
2018-03-29T05:59:53.650Z,376.00
2018-03-29T06:00:53.703Z,356.00
2018-03-29T06:01:53.769Z,360.00
2018-03-29T06:02:53.823Z,340.00
2018-03-29T06:03:54.287Z,304.00
2018-03-29T06:04:53.947Z,296.00
2018-03-29T06:05:54.007Z,324.00
2018-03-29T06:06:54.067Z,320.00
2018-03-29T06:07:54.126Z,256.00
2018-03-29T06:08:54.244Z,212.00
2018-03-29T06:09:54.327Z,216.00
2018-03-29T06:10:54.311Z,252.00
2018-03-29T06:11:54.379Z,232.00
2018-03-29T06:12:54.474Z,228.00
2018-03-29T06:13:54.496Z,228.00
2018-03-29T06:14:54.560Z,208.00
2018-03-29T06:15:54.655Z,196.00
2018-03-29T06:16:54.672Z,212.00
2018-03-29T06:17:54.732Z,264.00
2018-03-29T06:18:54.791Z,264.00
2018-03-29T06:19:54.887Z,236.00
2018-03-29T06:20:54.929Z,232.00
2018-03-29T06:21:54.980Z,228.00
2018-03-29T06:22:55.036Z,236.00
2018-03-29T06:23:55.096Z,256.00
2018-03-29T06:24:55.156Z,288.00
2018-03-29T06:25:55.384Z,332.00
2018-03-29T06:26:55.276Z,360.00
2018-03-29T06:27:55.337Z,356.00
2018-03-29T06:28:55.404Z,380.00
2018-03-29T06:29:55.456Z,420.00
2018-03-29T06:30:55.636Z,448.00
2018-03-29T06:31:55.588Z,524.00
2018-03-29T06:32:55.647Z,636.00
2018-03-29T06:33:55.708Z,728.00
2018-03-29T06:34:55.761Z,796.00
2018-03-29T06:35:55.860Z,824.00
2018-03-29T06:36:55.892Z,840.00
2018-03-29T06:37:55.940Z,772.00
2018-03-29T06:38:56.004Z,700.00
2018-03-29T06:39:56.065Z,640.00
2018-03-29T06:40:56.297Z,632.00
2018-03-29T06:41:56.188Z,716.00
2018-03-29T06:42:56.244Z,788.00
2018-03-29T06:43:56.305Z,764.00
2018-03-29T06:44:56.372Z,804.00
2018-03-29T06:45:56.441Z,864.00
2018-03-29T06:46:56.511Z,832.00
2018-03-29T06:47:56.549Z,896.00
2018-03-29T06:48:56.609Z,1088.00
2018-03-29T06:49:56.673Z,1128.00
2018-03-29T06:50:56.737Z,1216.00
2018-03-29T06:51:56.793Z,1112.00
2018-03-29T06:52:56.861Z,1108.00
2018-03-29T06:53:56.909Z,1296.00
2018-03-29T06:54:56.965Z,1292.00
2018-03-29T06:55:57.093Z,1684.00
2018-03-29T06:56:57.099Z,1812.00
2018-03-29T06:57:57.149Z,1680.00
2018-03-29T06:58:57.213Z,1552.00
2018-03-29T06:59:57.294Z,1396.00
2018-03-29T07:00:57.386Z,1488.00
2018-03-29T07:01:57.389Z,1476.00
2018-03-29T07:02:57.452Z,1420.00
2018-03-29T07:03:57.512Z,1412.00
2018-03-29T07:04:57.574Z,1232.00
2018-03-29T07:05:57.642Z,1076.00
2018-03-29T07:06:57.698Z,1104.00
2018-03-29T07:07:57.752Z,1224.00
2018-03-29T07:08:57.819Z,1248.00
2018-03-29T07:09:57.873Z,1272.00
2018-03-29T07:10:57.942Z,1296.00
2018-03-29T07:11:58.001Z,1348.00
2018-03-29T07:12:58.054Z,1428.00
2018-03-29T07:13:58.117Z,1564.00
2018-03-29T07:14:58.229Z,1820.00
2018-03-29T07:15:59.518Z,1984.00
2018-03-29T07:16:58.299Z,2028.00
2018-03-29T07:17:58.494Z,1988.00
2018-03-29T07:18:59.330Z,2224.00
2018-03-29T07:19:59.342Z,2928.00
2018-03-29T07:20:58.566Z,2800.00
2018-03-29T07:21:58.609Z,2596.00
2018-03-29T07:22:58.686Z,2528.00
2018-03-29T07:23:58.714Z,3060.00
2018-03-29T07:24:58.779Z,2744.00
2018-03-29T07:25:58.887Z,1936.00
2018-03-29T07:26:58.958Z,1660.00
2018-03-29T07:27:58.990Z,1952.00
2018-03-29T07:28:59.042Z,1912.00
2018-03-29T07:29:59.131Z,1900.00
2018-03-29T07:30:59.263Z,1980.00
2018-03-29T07:31:59.210Z,1996.00
2018-03-29T07:32:59.267Z,1936.00
2018-03-29T07:33:59.327Z,1768.00
2018-03-29T07:34:59.386Z,1788.00
2018-03-29T07:35:59.471Z,1916.00
2018-03-29T07:36:59.590Z,1912.00
2018-03-29T07:37:59.630Z,1976.00
2018-03-29T07:38:59.627Z,2000.00
2018-03-29T07:39:59.724Z,1992.00
2018-03-29T07:40:59.763Z,2120.00
2018-03-29T07:41:59.909Z,2196.00
2018-03-29T07:42:59.943Z,2020.00
2018-03-29T07:43:59.931Z,1832.00
2018-03-29T07:44:59.995Z,1892.00
2018-03-29T07:46:00.064Z,1956.00
2018-03-29T07:47:00.531Z,2136.00
2018-03-29T07:48:00.171Z,2408.00
2018-03-29T07:49:00.239Z,2520.00
2018-03-29T07:50:00.299Z,2876.00
2018-03-29T07:51:00.559Z,3324.00
2018-03-29T07:52:00.508Z,4296.00
2018-03-29T07:53:00.484Z,4792.00
2018-03-29T07:54:00.539Z,4220.00
2018-03-29T07:55:00.644Z,4040.00
2018-03-29T07:56:00.719Z,4140.00
2018-03-29T07:57:00.756Z,3884.00
2018-03-29T07:58:00.780Z,5172.00
2018-03-29T07:59:00.863Z,5468.00
2018-03-29T08:00:00.908Z,4888.00
2018-03-29T08:01:00.995Z,4856.00
2018-03-29T08:02:01.036Z,6032.00
2018-03-29T08:03:01.124Z,7308.00
2018-03-29T08:04:01.164Z,6652.00
2018-03-29T08:05:01.240Z,7284.00
2018-03-29T08:06:01.268Z,5904.00
2018-03-29T08:07:01.396Z,5420.00
2018-03-29T08:08:01.403Z,3992.00
2018-03-29T08:09:01.484Z,3964.00
2018-03-29T08:10:01.536Z,4040.00
2018-03-29T08:11:01.614Z,3664.00
2018-03-29T08:12:01.660Z,3836.00
2018-03-29T08:13:01.713Z,3088.00
2018-03-29T08:14:01.897Z,2880.00
2018-03-29T08:15:01.836Z,3348.00
2018-03-29T08:16:01.973Z,3468.00
2018-03-29T08:17:02.009Z,3824.00
2018-03-29T08:18:02.068Z,2944.00
2018-03-29T08:19:02.113Z,2844.00
2018-03-29T08:20:02.136Z,2500.00
2018-03-29T08:21:02.188Z,2796.00
2018-03-29T08:22:02.393Z,2556.00
2018-03-29T08:23:02.316Z,2240.00
2018-03-29T08:24:02.468Z,2288.00
2018-03-29T08:25:02.521Z,2356.00
2018-03-29T08:26:02.565Z,2720.00
2018-03-29T08:27:02.693Z,3036.00
2018-03-29T08:28:02.697Z,3496.00
2018-03-29T08:29:02.685Z,3784.00
2018-03-29T08:30:02.765Z,3440.00
2018-03-29T08:31:02.806Z,3852.00
2018-03-29T08:32:02.913Z,3852.00
2018-03-29T08:33:03.876Z,3660.00
2018-03-29T08:34:03.069Z,4124.00
2018-03-29T08:35:03.106Z,4096.00
2018-03-29T08:36:03.221Z,3868.00
2018-03-29T08:37:03.593Z,3648.00
2018-03-29T08:38:03.649Z,3100.00
2018-03-29T08:39:03.289Z,2964.00
2018-03-29T08:40:03.382Z,2904.00
2018-03-29T08:41:03.897Z,3076.00
2018-03-29T08:42:03.501Z,3108.00
2018-03-29T08:43:03.833Z,3260.00
2018-03-29T08:44:03.617Z,3224.00
2018-03-29T08:45:03.673Z,3040.00
2018-03-29T08:46:03.730Z,2960.00
2018-03-29T08:47:03.849Z,3276.00
2018-03-29T08:48:04.148Z,3568.00
2018-03-29T08:49:04.198Z,3952.00
2018-03-29T08:50:03.990Z,4428.00
2018-03-29T08:51:04.037Z,4428.00
2018-03-29T08:52:04.250Z,4968.00
2018-03-29T08:53:04.814Z,5464.00
2018-03-29T08:54:04.218Z,5800.00
2018-03-29T08:55:04.358Z,5016.00
2018-03-29T08:56:04.354Z,5360.00
2018-03-29T08:57:04.461Z,6044.00
2018-03-29T08:58:04.498Z,6256.00
2018-03-29T08:59:04.598Z,6660.00
2018-03-29T09:00:04.606Z,6868.00
2018-03-29T09:01:04.670Z,6760.00
2018-03-29T09:02:04.726Z,6584.00
2018-03-29T09:03:04.808Z,8964.00
2018-03-29T09:04:04.847Z,7952.00
2018-03-29T09:05:04.898Z,6688.00
2018-03-29T09:06:04.955Z,8016.00
2018-03-29T09:07:05.024Z,7432.00
2018-03-29T09:08:05.075Z,6820.00
2018-03-29T09:09:05.171Z,7656.00
2018-03-29T09:10:05.195Z,8196.00
2018-03-29T09:11:05.254Z,5632.00
2018-03-29T09:12:05.318Z,4128.00
2018-03-29T09:13:05.379Z,4284.00
2018-03-29T09:14:05.454Z,5848.00
2018-03-29T09:15:05.515Z,6348.00
2018-03-29T09:16:05.587Z,6336.00
2018-03-29T09:17:05.633Z,6444.00
2018-03-29T09:18:05.699Z,6904.00
2018-03-29T09:19:05.783Z,7464.00
2018-03-29T09:20:05.851Z,8116.00
2018-03-29T09:21:05.913Z,7844.00
2018-03-29T09:22:05.971Z,6888.00
2018-03-29T09:23:06.008Z,6740.00
2018-03-29T09:24:06.083Z,7112.00
2018-03-29T09:25:06.139Z,7476.00
2018-03-29T09:26:06.195Z,7888.00
2018-03-29T09:27:06.311Z,8476.00
2018-03-29T09:28:06.319Z,10172.00
2018-03-29T09:29:06.384Z,10860.00
2018-03-29T09:30:06.443Z,11700.00
2018-03-29T09:31:06.499Z,11308.00
2018-03-29T09:32:06.559Z,10268.00
2018-03-29T09:33:06.627Z,9008.00
2018-03-29T09:34:06.720Z,7396.00
2018-03-29T09:35:06.768Z,7888.00
2018-03-29T09:36:06.840Z,7372.00
2018-03-29T09:37:06.880Z,7696.00
2018-03-29T09:38:06.936Z,9312.00
2018-03-29T09:39:07.040Z,10568.00
2018-03-29T09:40:07.068Z,10348.00
2018-03-29T09:41:07.132Z,9840.00
2018-03-29T09:42:07.195Z,10296.00
2018-03-29T09:43:07.275Z,10764.00
2018-03-29T09:44:07.362Z,10248.00
2018-03-29T09:45:07.380Z,9848.00
2018-03-29T09:46:07.439Z,8576.00
2018-03-29T09:47:07.504Z,7728.00
2018-03-29T09:48:07.556Z,8288.00
2018-03-29T09:49:07.648Z,7904.00
2018-03-29T09:50:07.700Z,6900.00
2018-03-29T09:51:07.764Z,8508.00
2018-03-29T09:52:07.876Z,12096.00
2018-03-29T09:53:07.881Z,12436.00
2018-03-29T09:54:08.004Z,12152.00
2018-03-29T09:55:08.017Z,10988.00
2018-03-29T09:56:08.068Z,9688.00
2018-03-29T09:57:08.144Z,7752.00
2018-03-29T09:58:08.192Z,11020.00
2018-03-29T09:59:08.292Z,14112.00
2018-03-29T10:00:08.326Z,15808.00
2018-03-29T10:01:08.380Z,14408.00
2018-03-29T10:02:08.440Z,18144.00
2018-03-29T10:03:08.504Z,13452.00
2018-03-29T10:04:08.572Z,13464.00
2018-03-29T10:05:08.645Z,11704.00
2018-03-29T10:06:08.701Z,10416.00
2018-03-29T10:07:08.767Z,13264.00
2018-03-29T10:08:08.820Z,12952.00
2018-03-29T10:09:08.893Z,12024.00
2018-03-29T10:10:08.959Z,11644.00
2018-03-29T10:11:09.012Z,9644.00
2018-03-29T10:12:09.111Z,9176.00
2018-03-29T10:13:09.136Z,7484.00
2018-03-29T10:14:09.217Z,5968.00
2018-03-29T10:15:09.267Z,5364.00
2018-03-29T10:16:09.333Z,5396.00
2018-03-29T10:17:10.349Z,5832.00
2018-03-29T10:18:09.465Z,6164.00
2018-03-29T10:19:09.530Z,6444.00
2018-03-29T10:20:09.589Z,7968.00
2018-03-29T10:21:09.645Z,10016.00
2018-03-29T10:22:09.713Z,8568.00
2018-03-29T10:23:09.782Z,7872.00
2018-03-29T10:24:09.901Z,7716.00
2018-03-29T10:25:09.917Z,7428.00
2018-03-29T10:26:09.969Z,6772.00
2018-03-29T10:27:10.034Z,5940.00
2018-03-29T10:28:10.094Z,5412.00
2018-03-29T10:29:10.214Z,5640.00
2018-03-29T10:30:10.256Z,7708.00
2018-03-29T10:31:10.334Z,8544.00
2018-03-29T10:32:10.350Z,8500.00
2018-03-29T10:33:10.409Z,8276.00
2018-03-29T10:34:10.541Z,7912.00
2018-03-29T10:35:10.550Z,7652.00
2018-03-29T10:36:10.601Z,7364.00
2018-03-29T10:37:10.662Z,7584.00
2018-03-29T10:38:10.726Z,7536.00
2018-03-29T10:39:10.798Z,7016.00
2018-03-29T10:40:10.866Z,6996.00
2018-03-29T10:41:10.927Z,6984.00
2018-03-29T10:42:10.982Z,7008.00
2018-03-29T10:43:11.046Z,5868.00
2018-03-29T10:44:11.414Z,7032.00
2018-03-29T10:45:11.182Z,6260.00
2018-03-29T10:46:11.242Z,6188.00
2018-03-29T10:47:11.311Z,7352.00
2018-03-29T10:48:11.374Z,6980.00
2018-03-29T10:49:11.499Z,6748.00
2018-03-29T10:50:11.504Z,6708.00
2018-03-29T10:51:12.355Z,6612.00
2018-03-29T10:52:11.643Z,6268.00
2018-03-29T10:53:11.686Z,6020.00
2018-03-29T10:54:11.762Z,5856.00
2018-03-29T10:55:11.827Z,5780.00
2018-03-29T10:56:11.879Z,5916.00
2018-03-29T10:57:11.939Z,6144.00
2018-03-29T10:58:12.003Z,6192.00
2018-03-29T10:59:12.070Z,6404.00
2018-03-29T11:00:12.138Z,6664.00
2018-03-29T11:01:12.195Z,6816.00
2018-03-29T11:02:12.259Z,6692.00
2018-03-29T11:03:12.351Z,6832.00
2018-03-29T11:04:12.426Z,6876.00
2018-03-29T11:05:12.462Z,7020.00
2018-03-29T11:06:12.518Z,7408.00
2018-03-29T11:07:12.579Z,7448.00
2018-03-29T11:08:12.643Z,7372.00
2018-03-29T11:09:12.716Z,6456.00
2018-03-29T11:10:12.775Z,8232.00
2018-03-29T11:11:12.835Z,8300.00
2018-03-29T11:12:12.904Z,8060.00
2018-03-29T11:13:12.971Z,7928.00
2018-03-29T11:14:13.031Z,7792.00
2018-03-29T11:15:13.107Z,7296.00
2018-03-29T11:16:13.167Z,6808.00
2018-03-29T11:17:13.223Z,6440.00
2018-03-29T11:18:13.287Z,6216.00
2018-03-29T11:19:13.360Z,6172.00
2018-03-29T11:20:13.420Z,6040.00
2018-03-29T11:21:13.475Z,6368.00
2018-03-29T11:22:13.543Z,7532.00
2018-03-29T11:23:13.603Z,8572.00
2018-03-29T11:24:13.675Z,9236.00
2018-03-29T11:25:13.748Z,8676.00
2018-03-29T11:26:13.800Z,8816.00
2018-03-29T11:27:13.867Z,8144.00
2018-03-29T11:28:13.928Z,7276.00
2018-03-29T11:29:14.003Z,6700.00
2018-03-29T11:30:14.064Z,6208.00
2018-03-29T11:31:14.124Z,5976.00
2018-03-29T11:32:14.197Z,6100.00
2018-03-29T11:33:14.252Z,6188.00
2018-03-29T11:34:14.317Z,6068.00
2018-03-29T11:35:14.399Z,5784.00
2018-03-29T11:36:14.448Z,5608.00
2018-03-29T11:37:14.508Z,5600.00
2018-03-29T11:38:14.576Z,5428.00
2018-03-29T11:39:14.636Z,4692.00
2018-03-29T11:40:14.728Z,3540.00
2018-03-29T11:41:14.780Z,2760.00
2018-03-29T11:42:14.828Z,2508.00
2018-03-29T11:43:14.896Z,2496.00
2018-03-29T11:44:14.956Z,2388.00
2018-03-29T11:45:15.023Z,2292.00
2018-03-29T11:46:15.504Z,2272.00
2018-03-29T11:47:15.156Z,2356.00
2018-03-29T11:48:15.217Z,2552.00
2018-03-29T11:49:15.276Z,2732.00
2018-03-29T11:50:15.341Z,2852.00
2018-03-29T11:51:15.408Z,2912.00
2018-03-29T11:52:15.773Z,2932.00
2018-03-29T11:53:15.534Z,2888.00
2018-03-29T11:54:15.596Z,2848.00
2018-03-29T11:55:15.661Z,3040.00
2018-03-29T11:56:15.725Z,3232.00
2018-03-29T11:57:15.797Z,3444.00
2018-03-29T11:58:15.860Z,3848.00
2018-03-29T11:59:15.925Z,4300.00
2018-03-29T12:00:15.985Z,4672.00
2018-03-29T12:01:16.048Z,5128.00
2018-03-29T12:02:16.265Z,5192.00
2018-03-29T12:03:16.173Z,4972.00
2018-03-29T12:04:16.237Z,4872.00
2018-03-29T12:05:16.301Z,4640.00
2018-03-29T12:06:16.367Z,4848.00
2018-03-29T12:07:16.437Z,5304.00
2018-03-29T12:08:16.501Z,5352.00
2018-03-29T12:09:16.557Z,5320.00
2018-03-29T12:10:16.621Z,5420.00
2018-03-29T12:11:16.685Z,4968.00
2018-03-29T12:12:16.757Z,3580.00
2018-03-29T12:13:16.818Z,2284.00
2018-03-29T12:14:16.882Z,1496.00
2018-03-29T12:15:16.942Z,1500.00
2018-03-29T12:16:17.005Z,2480.00
2018-03-29T12:17:17.095Z,3804.00
2018-03-29T12:18:17.130Z,3984.00
2018-03-29T12:19:17.198Z,3200.00
2018-03-29T12:20:17.262Z,2676.00
2018-03-29T12:21:17.327Z,2828.00
2018-03-29T12:22:17.395Z,3144.00
2018-03-29T12:23:17.454Z,3848.00
2018-03-29T12:24:17.514Z,4332.00
2018-03-29T12:25:17.573Z,5000.00
2018-03-29T12:26:17.638Z,5280.00
2018-03-29T12:27:17.706Z,5584.00
2018-03-29T12:28:17.779Z,5764.00
2018-03-29T12:29:17.826Z,5772.00
2018-03-29T12:30:17.890Z,5944.00
2018-03-29T12:31:17.979Z,6540.00
2018-03-29T12:32:18.022Z,7032.00
2018-03-29T12:33:18.082Z,7488.00
2018-03-29T12:34:18.138Z,7684.00
2018-03-29T12:35:18.211Z,7676.00
2018-03-29T12:36:18.878Z,7576.00
2018-03-29T12:37:18.344Z,7424.00